Time;durP1;ratioP1;P1;durP2;ratioP2;P2;SDS_P1;SDS_P2;PMS_P1;PMS_P2;Temp;Humidity;BMP_temperature;BMP_pressure;BME280_temperature;BME280_humidity;BME280_pressure;Samples;Min_cycle;Max_cycle;Signal;HPM_P1;HPM_P2
2023/03/02 00:02:16;;;;;;;4.00;2.90;;;;;;;3.66;100.00;99803.78;5113016;28;20213;-62
2023/03/02 00:04:48;;;;;;;1.70;1.60;;;;;;;3.57;100.00;99799.84;5113507;28;20653;-59
2023/03/02 00:07:19;;;;;;;1.70;1.53;;;;;;;3.73;100.00;99803.53;5113127;28;20213;-60
2023/03/02 00:09:46;;;;;;;1.53;1.43;;;;;;;3.73;100.00;99795.94;5112869;28;20201;-62
2023/03/02 00:12:14;;;;;;;3.40;2.10;;;;;;;3.59;100.00;99803.16;5113109;28;20217;-61
2023/03/02 00:14:42;;;;;;;2.10;1.37;;;;;;;3.68;100.00;99789.38;5113348;28;20630;-59
2023/03/02 00:17:09;;;;;;;3.47;1.10;;;;;;;3.66;100.00;99788.59;5112968;28;20595;-60
2023/03/02 00:19:36;;;;;;;1.50;1.40;;;;;;;3.67;100.00;99786.03;5112714;27;20208;-62
2023/03/02 00:22:03;;;;;;;2.10;1.93;;;;;;;3.71;100.00;99782.50;5113070;28;20312;-60
2023/03/02 00:24:30;;;;;;;2.70;2.13;;;;;;;3.56;100.00;99773.72;5112697;28;20205;-62
2023/03/02 00:26:57;;;;;;;4.90;3.23;;;;;;;3.64;100.00;99776.03;5112875;28;20227;-62
2023/03/02 00:29:25;;;;;;;6.10;2.60;;;;;;;3.56;100.00;99772.91;5112519;28;20225;-60
2023/03/02 00:31:52;;;;;;;1.53;1.43;;;;;;;3.74;100.00;99764.72;5112560;28;20717;-61
2023/03/02 00:34:19;;;;;;;4.63;2.87;;;;;;;3.58;100.00;99766.13;5112410;28;20201;-62
2023/03/02 00:36:48;;;;;;;3.70;3.37;;;;;;;3.54;100.00;99765.38;5112328;28;20197;-61
2023/03/02 00:39:17;;;;;;;3.67;2.17;;;;;;;3.55;100.00;99761.97;5112642;28;20293;-59
2023/03/02 00:41:44;;;;;;;1.80;1.67;;;;;;;3.61;100.00;99766.84;5112585;28;20661;-60
2023/03/02 00:44:16;;;;;;;3.03;2.83;;;;;;;3.49;100.00;99756.28;5112472;28;20198;-60
2023/03/02 00:46:44;;;;;;;3.03;2.70;;;;;;;3.51;100.00;99755.34;5112199;28;20205;-60
2023/03/02 00:49:12;;;;;;;7.40;3.63;;;;;;;3.58;100.00;99756.00;5111980;28;20198;-60
2023/03/02 00:51:39;;;;;;;4.70;2.33;;;;;;;3.47;100.00;99756.34;5112018;28;20196;-59
2023/03/02 00:54:05;;;;;;;5.93;2.87;;;;;;;3.35;100.00;99765.13;5112410;28;20205;-59
2023/03/02 00:56:32;;;;;;;2.50;1.80;;;;;;;3.46;100.00;99756.38;5112353;28;20229;-60
2023/03/02 00:59:05;;;;;;;3.17;1.97;;;;;;;3.44;100.00;99760.69;5111989;28;20217;-60
2023/03/02 01:01:32;;;;;;;2.53;1.77;;;;;;;3.44;100.00;99758.16;5112281;28;20403;-61
2023/03/02 01:04:00;;;;;;;1.93;1.73;;;;;;;3.46;100.00;99756.38;5112137;28;20601;-62
2023/03/02 01:06:27;;;;;;;5.20;2.80;;;;;;;3.44;100.00;99761.50;5111856;28;20209;-59
2023/03/02 01:08:54;;;;;;;1.70;1.47;;;;;;;3.52;100.00;99751.97;5111984;28;20224;-62
2023/03/02 01:11:22;;;;;;;2.30;1.27;;;;;;;3.63;100.00;99754.13;5111714;28;20196;-61
2023/03/02 01:13:49;;;;;;;1.10;1.10;;;;;;;3.57;100.00;99750.09;5111526;28;20220;-62
2023/03/02 01:16:16;;;;;;;2.53;1.27;;;;;;;3.52;100.00;99758.69;5111826;28;20687;-62
2023/03/02 01:18:43;;;;;;;2.13;1.73;;;;;;;3.65;100.00;99756.63;5111841;28;20243;-62
2023/03/02 01:21:13;;;;;;;1.47;1.20;;;;;;;3.63;100.00;99759.19;5111750;28;20201;-62
2023/03/02 01:23:40;;;;;;;1.83;1.73;;;;;;;3.71;100.00;99762.28;5111502;28;20220;-62
2023/03/02 01:26:08;;;;;;;1.80;1.60;;;;;;;3.72;100.00;99761.41;5111353;28;20200;-62
2023/03/02 01:28:35;;;;;;;0.83;0.80;;;;;;;3.79;100.00;99767.09;5111540;28;20232;-60
2023/03/02 01:31:03;;;;;;;0.97;0.97;;;;;;;3.74;100.00;99767.25;5111666;28;20263;-60
2023/03/02 01:33:30;;;;;;;3.97;1.90;;;;;;;3.82;100.00;99761.94;5111367;28;20217;-62
2023/03/02 01:35:57;;;;;;;1.20;1.10;;;;;;;3.72;100.00;99768.97;5111116;28;20247;-59
2023/03/02 01:38:25;;;;;;;3.60;2.10;;;;;;;3.71;100.00;99782.50;5111134;28;20224;-60
2023/03/02 01:40:52;;;;;;;2.07;1.80;;;;;;;3.57;100.00;99775.38;5111514;28;20202;-61
2023/03/02 01:43:19;;;;;;;4.80;1.47;;;;;;;3.60;100.00;99771.91;5111361;28;20224;-62
2023/03/02 01:45:53;;;;;;;1.30;1.10;;;;;;;3.66;100.00;99764.13;5111077;28;20691;-60
2023/03/02 01:48:26;;;;;;;2.40;1.87;;;;;;;3.72;100.00;99766.47;5111180;28;20221;-60
2023/03/02 01:50:53;;;;;;;1.27;1.17;;;;;;;3.78;100.00;99767.97;5110909;28;20193;-59
2023/03/02 01:53:22;;;;;;;0.97;0.93;;;;;;;3.77;100.00;99766.31;5111003;28;20310;-62
2023/03/02 01:55:51;;;;;;;1.70;1.60;;;;;;;3.67;100.00;99770.88;5111042;28;20229;-61
2023/03/02 01:58:18;;;;;;;2.93;1.73;;;;;;;3.73;100.00;99768.13;5110615;28;20213;-61
2023/03/02 02:00:45;;;;;;;2.60;1.60;;;;;;;3.72;100.00;99768.97;5111232;28;20726;-62
2023/03/02 02:03:19;;;;;;;1.50;1.40;;;;;;;3.73;100.00;99765.59;5110578;28;20213;-62
2023/03/02 02:05:55;;;;;;;2.87;0.97;;;;;;;3.76;100.00;99774.78;5110875;28;20285;-60
2023/03/02 02:08:23;;;;;;;2.37;2.03;;;;;;;3.68;100.00;99782.63;5109924;28;20227;-59
2023/03/02 02:10:51;;;;;;;2.70;2.30;;;;;;;3.62;100.00;99780.28;5110787;28;20198;-60
2023/03/02 02:13:18;;;;;;;2.47;1.93;;;;;;;3.60;100.00;99779.50;5110331;28;20213;-61
2023/03/02 02:15:45;;;;;;;1.77;1.67;;;;;;;3.48;100.00;99774.84;5110313;28;20235;-60
2023/03/02 02:18:12;;;;;;;1.60;1.10;;;;;;;3.40;100.00;99773.41;5110081;28;20225;-60
2023/03/02 02:20:43;;;;;;;1.13;1.00;;;;;;;3.51;100.00;99769.69;5110398;28;20197;-61
2023/03/02 02:23:26;;;;;;;1.53;1.43;;;;;;;3.58;100.00;99777.03;5110342;28;20225;-60
2023/03/02 02:26:04;;;;;;;2.93;1.83;;;;;;;3.43;100.00;99771.63;5110211;28;20250;-62
2023/03/02 02:28:35;;;;;;;1.00;0.90;;;;;;;3.50;100.00;99768.06;5110633;28;20719;-61
2023/03/02 02:31:07;;;;;;;2.73;1.17;;;;;;;3.48;100.00;99768.09;5110562;28;20478;-59
2023/03/02 02:33:36;;;;;;;1.50;1.40;;;;;;;3.28;100.00;99775.47;5110501;28;20583;-61
2023/03/02 02:36:07;;;;;;;1.00;0.93;;;;;;;3.25;100.00;99773.88;5110136;28;20233;-60
2023/03/02 02:38:36;;;;;;;1.67;1.40;;;;;;;3.12;100.00;99767.56;5110307;28;20221;-61
2023/03/02 02:41:07;;;;;;;0.73;0.73;;;;;;;3.13;100.00;99759.09;5110381;28;20193;-60
2023/03/02 02:43:34;;;;;;;2.03;1.73;;;;;;;3.18;100.00;99762.31;5110289;28;20240;-61
2023/03/02 02:46:02;;;;;;;1.83;1.47;;;;;;;3.26;100.00;99769.63;5110391;28;20209;-59
2023/03/02 02:48:32;;;;;;;3.50;2.27;;;;;;;3.12;100.00;99759.97;5110068;28;20216;-61
2023/03/02 02:51:01;;;;;;;1.93;0.90;;;;;;;3.28;100.00;99765.38;5109986;28;20212;-61
2023/03/02 02:53:34;;;;;;;1.73;1.33;;;;;;;3.21;100.00;99757.16;5109896;28;20618;-60
2023/03/02 02:56:02;;;;;;;2.13;1.47;;;;;;;3.17;100.00;99760.66;5109870;28;20221;-60
2023/03/02 02:58:37;;;;;;;2.13;1.13;;;;;;;3.23;100.00;99750.38;5109908;28;20224;-61
2023/03/02 03:01:05;;;;;;;1.73;1.60;;;;;;;3.23;100.00;99757.94;5109895;28;20700;-61
2023/03/02 03:03:36;;;;;;;0.67;0.67;;;;;;;3.12;100.00;99753.22;5109837;28;20221;-62
2023/03/02 03:06:05;;;;;;;3.57;1.87;;;;;;;3.12;100.00;99754.94;5109856;28;20220;-61
2023/03/02 03:08:59;;;;;;;1.00;1.00;;;;;;;3.17;100.00;99755.59;5110017;28;20213;-60
2023/03/02 03:11:28;;;;;;;1.37;1.27;;;;;;;3.15;100.00;99759.88;5111930;28;20217;-61
2023/03/02 03:14:07;;;;;;;1.83;1.67;;;;;;;3.26;100.00;99757.84;5114069;28;20714;-59
2023/03/02 03:16:35;;;;;;;1.37;1.10;;;;;;;3.33;100.00;99756.78;5113865;27;20224;-61
2023/03/02 03:19:08;;;;;;;1.40;1.30;;;;;;;3.28;100.00;99758.59;5114006;28;20231;-59
2023/03/02 03:21:35;;;;;;;2.63;1.97;;;;;;;3.16;100.00;99754.78;5114375;28;20373;-61
2023/03/02 03:24:02;;;;;;;0.93;0.90;;;;;;;3.27;100.00;99751.09;5113737;28;20224;-61
2023/03/02 03:26:29;;;;;;;2.20;1.03;;;;;;;3.30;100.00;99751.81;5113992;28;20208;-62
2023/03/02 03:28:57;;;;;;;4.07;1.77;;;;;;;3.12;100.00;99753.22;5113740;28;20225;-61
2023/03/02 03:31:27;;;;;;;0.93;0.90;;;;;;;3.42;100.00;99755.66;5113784;28;20197;-60
2023/03/02 03:33:54;;;;;;;1.97;1.53;;;;;;;3.26;100.00;99760.38;5113725;28;20217;-60
2023/03/02 03:36:22;;;;;;;1.03;0.90;;;;;;;2.95;100.00;99750.38;5113379;28;20231;-60
2023/03/02 03:38:49;;;;;;;2.37;1.60;;;;;;;2.93;100.00;99744.53;5113326;28;20213;-61
2023/03/02 03:41:16;;;;;;;1.80;1.70;;;;;;;3.08;100.00;99743.25;5113308;28;20193;-62
2023/03/02 03:43:43;;;;;;;1.23;1.13;;;;;;;3.09;100.00;99739.88;5113409;28;20665;-59
2023/03/02 03:46:10;;;;;;;1.50;1.40;;;;;;;3.06;100.00;99742.50;5113188;28;20207;-62
2023/03/02 03:48:38;;;;;;;2.03;1.27;;;;;;;3.04;100.00;99754.34;5113308;28;20235;-61
2023/03/02 03:51:05;;;;;;;3.90;1.93;;;;;;;2.97;100.00;99757.91;5113160;28;20205;-62
2023/03/02 03:53:33;;;;;;;1.80;1.70;;;;;;;2.95;100.00;99751.22;5113233;28;20221;-62
2023/03/02 03:56:01;;;;;;;2.93;2.50;;;;;;;2.78;100.00;99753.41;5113074;28;20232;-60
2023/03/02 03:58:28;;;;;;;0.67;0.67;;;;;;;3.00;100.00;99752.78;5113033;28;20221;-59
2023/03/02 04:00:55;;;;;;;1.03;0.93;;;;;;;2.91;100.00;99759.75;5113123;28;20198;-62
2023/03/02 04:03:22;;;;;;;3.70;2.23;;;;;;;2.87;100.00;99752.31;5112787;28;20221;-60
2023/03/02 04:05:51;;;;;;;4.80;2.07;;;;;;;2.98;100.00;99755.34;5113056;28;20209;-62
2023/03/02 04:08:18;;;;;;;2.30;1.73;;;;;;;2.88;100.00;99757.34;5112770;28;20213;-60
2023/03/02 04:10:45;;;;;;;2.47;2.27;;;;;;;2.97;100.00;99752.84;5112766;28;20193;-62
2023/03/02 04:13:12;;;;;;;1.77;1.67;;;;;;;3.05;100.00;99750.94;5112437;28;20213;-62
2023/03/02 04:15:40;;;;;;;2.60;2.40;;;;;;;2.97;100.00;99750.31;5112654;28;20201;-62
2023/03/02 04:18:07;;;;;;;4.53;2.50;;;;;;;3.03;100.00;99748.47;5112727;28;20228;-62
2023/03/02 04:20:34;;;;;;;6.37;3.17;;;;;;;2.84;100.00;99758.28;5112904;28;20197;-59
2023/03/02 04:23:02;;;;;;;2.97;2.07;;;;;;;2.93;100.00;99752.94;5111102;28;20224;-60
2023/03/02 04:25:30;;;;;;;1.50;1.37;;;;;;;2.85;100.00;99744.81;5112878;28;20560;-60
2023/03/02 04:27:57;;;;;;;3.70;2.33;;;;;;;3.01;100.00;99759.47;5112399;28;20311;-62
2023/03/02 04:30:26;;;;;;;3.30;2.00;;;;;;;3.14;100.00;99756.53;5112492;28;20205;-61
2023/03/02 04:32:53;;;;;;;1.40;1.30;;;;;;;2.94;100.00;99759.66;5112182;28;20213;-62
2023/03/02 04:35:20;;;;;;;2.23;1.83;;;;;;;2.77;100.00;99749.25;5112083;28;20197;-59
2023/03/02 04:37:47;;;;;;;4.13;2.87;;;;;;;2.79;100.00;99751.72;5112365;28;20240;-60
2023/03/02 04:40:16;;;;;;;3.00;1.80;;;;;;;2.76;100.00;99740.00;5112188;28;20201;-60
2023/03/02 04:42:44;;;;;;;2.43;2.23;;;;;;;2.92;100.00;99753.81;5111988;28;20225;-61
2023/03/02 04:45:12;;;;;;;2.53;1.87;;;;;;;2.97;100.00;99745.28;5112447;28;20197;-60
2023/03/02 04:47:39;;;;;;;3.57;3.27;;;;;;;2.86;100.00;99748.97;5111943;28;20220;-59
2023/03/02 04:50:07;;;;;;;1.90;1.80;;;;;;;3.03;100.00;99745.94;5112035;28;20204;-61
2023/03/02 04:52:34;;;;;;;1.97;1.80;;;;;;;2.92;100.00;99758.88;5112110;28;20233;-59
2023/03/02 04:55:01;;;;;;;6.87;4.07;;;;;;;2.87;100.00;99758.19;5112070;28;20361;-59
2023/03/02 04:57:29;;;;;;;1.77;1.40;;;;;;;2.82;100.00;99765.09;5111629;28;20240;-59
2023/03/02 04:59:56;;;;;;;2.63;1.63;;;;;;;2.87;100.00;99758.19;5111878;28;20470;-60
2023/03/02 05:02:23;;;;;;;2.13;1.67;;;;;;;3.05;100.00;99750.94;5111866;28;20221;-59
2023/03/02 05:04:50;;;;;;;0.87;0.87;;;;;;;2.80;100.00;99751.69;5111833;28;20198;-59
2023/03/02 05:07:17;;;;;;;2.73;2.37;;;;;;;2.75;100.00;99756.03;5111550;27;20220;-62
2023/03/02 05:09:44;;;;;;;2.67;2.07;;;;;;;2.66;100.00;99748.72;5111472;28;20193;-60
2023/03/02 05:12:11;;;;;;;2.70;1.67;;;;;;;2.71;100.00;99757.00;5111552;28;20485;-60
2023/03/02 05:14:39;;;;;;;3.63;2.20;;;;;;;2.67;100.00;99755.41;5111418;28;20198;-61
2023/03/02 05:17:06;;;;;;;2.07;1.90;;;;;;;2.74;100.00;99754.38;5111559;28;20229;-62
2023/03/02 05:19:32;;;;;;;2.30;2.10;;;;;;;2.71;100.00;99757.00;5111728;28;20201;-62
2023/03/02 05:21:59;;;;;;;2.67;2.10;;;;;;;2.46;100.00;99756.88;5111413;28;20221;-62
2023/03/02 05:24:26;;;;;;;2.73;1.83;;;;;;;2.57;100.00;99762.44;5111892;28;20217;-61
2023/03/02 05:26:53;;;;;;;6.63;2.67;;;;;;;2.43;100.00;99767.88;5111003;28;20212;-59
2023/03/02 05:29:20;;;;;;;2.30;2.10;;;;;;;2.44;100.00;99764.50;5111242;28;20276;-62
2023/03/02 05:31:49;;;;;;;2.33;2.03;;;;;;;2.41;100.00;99772.13;5111165;28;20204;-62
2023/03/02 05:34:17;;;;;;;3.63;2.10;;;;;;;2.32;100.00;99764.81;5111022;28;20201;-62
2023/03/02 05:36:45;;;;;;;4.23;3.20;;;;;;;2.31;100.00;99772.44;5110939;28;20229;-61
2023/03/02 05:39:12;;;;;;;3.53;2.30;;;;;;;2.49;100.00;99772.75;5111043;28;20669;-62
2023/03/02 05:41:39;;;;;;;3.30;2.20;;;;;;;2.37;100.00;99768.03;5111047;28;20201;-61
2023/03/02 05:44:10;;;;;;;3.57;2.93;;;;;;;2.23;100.00;99781.03;5111093;28;20223;-60
2023/03/02 05:46:38;;;;;;;2.97;2.73;;;;;;;2.32;100.00;99785.00;5110928;28;20209;-60
2023/03/02 05:49:06;;;;;;;2.30;1.03;;;;;;;2.33;100.00;99786.69;5110907;28;20367;-60
2023/03/02 05:51:33;;;;;;;5.50;2.57;;;;;;;2.31;100.00;99788.41;5110689;28;20594;-59
2023/03/02 05:54:00;;;;;;;3.30;2.83;;;;;;;2.13;100.00;99794.78;5110852;28;20228;-60
2023/03/02 05:56:27;;;;;;;1.53;1.43;;;;;;;2.28;100.00;99792.72;5110486;28;20264;-62
2023/03/02 05:58:54;;;;;;;1.23;1.23;;;;;;;2.24;100.00;99802.91;5110628;28;20720;-60
2023/03/02 06:01:20;;;;;;;1.00;1.00;;;;;;;2.18;100.00;99798.00;5110587;28;20201;-61
2023/03/02 06:03:47;;;;;;;2.07;1.87;;;;;;;2.20;100.00;99795.44;5110601;28;20213;-60
2023/03/02 06:06:16;;;;;;;2.60;2.40;;;;;;;2.07;100.00;99799.16;5110994;28;20212;-60
2023/03/02 06:08:44;;;;;;;2.57;1.67;;;;;;;2.02;100.00;99802.59;5110326;28;20213;-59
2023/03/02 06:11:11;;;;;;;1.63;1.53;;;;;;;1.85;100.00;99809.78;5110832;28;20201;-59
2023/03/02 06:13:38;;;;;;;2.10;1.90;;;;;;;1.92;100.00;99808.78;5110221;28;20217;-62
2023/03/02 06:16:06;;;;;;;4.63;3.80;;;;;;;1.85;100.00;99812.28;5110252;28;20661;-59
2023/03/02 06:18:32;;;;;;;2.20;2.00;;;;;;;1.91;100.00;99824.75;5110632;28;20227;-60
2023/03/02 06:20:59;;;;;;;2.73;1.87;;;;;;;1.73;100.00;99821.00;5110042;28;20207;-62
2023/03/02 06:23:28;;;;;;;1.17;1.07;;;;;;;1.87;100.00;99817.31;5110283;28;20278;-60
2023/03/02 06:25:57;;;;;;;5.30;3.13;;;;;;;1.81;100.00;99820.81;5109898;28;20201;-61
2023/03/02 06:28:24;;;;;;;2.30;2.10;;;;;;;1.70;100.00;99818.53;5110056;28;20298;-60
2023/03/02 06:30:52;;;;;;;4.10;2.70;;;;;;;1.68;100.00;99812.72;5109918;28;20590;-62
2023/03/02 06:33:20;;;;;;;1.23;1.20;;;;;;;1.79;100.00;99809.94;5109782;28;20217;-62
2023/03/02 06:35:49;;;;;;;2.67;2.47;;;;;;;1.86;100.00;99816.47;5109837;28;20300;-59
2023/03/02 06:38:16;;;;;;;2.63;2.43;;;;;;;1.92;100.00;99818.84;5109904;28;20243;-62
2023/03/02 06:40:44;;;;;;;2.13;1.90;;;;;;;1.64;100.00;99825.44;5109725;28;20593;-63
2023/03/02 06:43:11;;;;;;;3.33;3.03;;;;;;;1.70;100.00;99823.59;5109833;28;20224;-63
2023/03/02 06:45:38;;;;;;;2.93;2.73;;;;;;;1.69;100.00;99833.72;5109012;28;20212;-63
2023/03/02 06:48:05;;;;;;;3.77;2.73;;;;;;;1.79;100.00;99835.13;5109624;28;20217;-62
2023/03/02 06:50:32;;;;;;;4.03;2.63;;;;;;;1.69;100.00;99818.59;5109775;28;20560;-58
2023/03/02 06:52:59;;;;;;;2.33;2.13;;;;;;;1.70;100.00;99807.63;5109859;28;20463;-61
2023/03/02 06:55:27;;;;;;;5.30;3.50;;;;;;;1.82;100.00;99802.28;5110206;28;20587;-59
2023/03/02 06:57:55;;;;;;;5.43;3.07;;;;;;;1.80;100.00;99804.00;5109612;28;20233;-58
2023/03/02 07:00:26;;;;;;;0.97;0.97;;;;;;;1.84;100.00;99807.31;5110293;28;20220;-58
2023/03/02 07:02:54;;;;;;;9.97;4.00;;;;;;;1.84;100.00;99804.78;5109894;28;20247;-59
2023/03/02 07:05:22;;;;;;;5.90;2.60;;;;;;;1.95;100.00;99796.09;5110248;28;20212;-58
2023/03/02 07:07:49;;;;;;;1.60;1.50;;;;;;;1.88;100.00;99799.59;5109901;28;20213;-59
2023/03/02 07:10:17;;;;;;;2.20;2.03;;;;;;;1.90;100.00;99802.94;5110039;28;20194;-59
2023/03/02 07:12:43;;;;;;;2.23;2.03;;;;;;;2.11;100.00;99796.50;5109950;28;20222;-59
2023/03/02 07:15:13;;;;;;;2.73;2.53;;;;;;;1.99;100.00;99797.66;5109826;28;20197;-59
2023/03/02 07:17:42;;;;;;;3.23;2.07;;;;;;;2.10;100.00;99799.09;5109894;28;20323;-59
2023/03/02 07:20:12;;;;;;;4.23;3.30;;;;;;;2.15;100.00;99807.34;5110015;28;20198;-59
2023/03/02 07:22:40;;;;;;;5.27;2.27;;;;;;;2.16;100.00;99819.09;5109817;28;20260;-59
2023/03/02 07:25:09;;;;;;;2.17;1.93;;;;;;;2.10;100.00;99817.56;5109936;28;20354;-58
2023/03/02 07:27:36;;;;;;;1.40;1.30;;;;;;;2.07;100.00;99810.06;5109674;28;20232;-59
2023/03/02 07:30:03;;;;;;;5.37;2.43;;;;;;;2.35;100.00;99807.63;5109661;28;20197;-59
2023/03/02 07:32:31;;;;;;;2.77;1.97;;;;;;;2.55;100.00;99807.09;5109808;28;20613;-58
2023/03/02 07:34:58;;;;;;;3.27;2.20;;;;;;;2.47;100.00;99807.31;5109588;28;20197;-59
2023/03/02 07:37:25;;;;;;;3.80;2.73;;;;;;;2.40;100.00;99805.81;5109740;28;20236;-58
2023/03/02 07:39:52;;;;;;;2.97;2.57;;;;;;;2.42;100.00;99816.69;5109984;28;20190;-59
2023/03/02 07:42:19;;;;;;;2.60;2.40;;;;;;;2.69;100.00;99809.22;5109595;28;20221;-59
2023/03/02 07:44:46;;;;;;;2.80;2.60;;;;;;;2.56;100.00;99795.28;5109835;28;20266;-58
2023/03/02 07:47:13;;;;;;;6.63;3.10;;;;;;;2.73;100.00;99800.69;5109073;28;20256;-58
2023/03/02 07:49:41;;;;;;;2.90;2.67;;;;;;;2.97;100.00;99813.47;5109940;28;20220;-58
2023/03/02 07:52:08;;;;;;;2.93;2.63;;;;;;;2.72;100.00;99819.25;5109463;28;20225;-59
2023/03/02 07:54:35;;;;;;;2.73;2.10;;;;;;;2.55;100.00;99822.22;5109712;28;20208;-59
2023/03/02 07:57:02;;;;;;;2.43;2.23;;;;;;;2.57;100.00;99812.09;5110902;28;20232;-58
2023/03/02 07:59:29;;;;;;;4.07;2.00;;;;;;;2.62;100.00;99817.88;5113517;28;20356;-58
2023/03/02 08:01:57;;;;;;;1.17;1.10;;;;;;;2.44;100.00;99817.50;5113179;28;20197;-58
2023/03/02 08:04:24;;;;;;;5.63;4.53;;;;;;;2.36;100.00;99816.88;5113478;28;20197;-59
2023/03/02 08:06:52;;;;;;;5.13;2.57;;;;;;;2.56;100.00;99815.47;5113218;28;20236;-59
2023/03/02 08:09:19;;;;;;;4.90;3.00;;;;;;;2.42;100.00;99819.22;5113146;28;20197;-58
2023/03/02 08:11:47;;;;;;;5.30;3.07;;;;;;;2.60;100.00;99822.13;5113211;28;20201;-59
2023/03/02 08:14:14;;;;;;;2.20;1.83;;;;;;;2.48;100.00;99824.09;5112807;28;20250;-58
2023/03/02 08:16:41;;;;;;;2.93;2.20;;;;;;;2.55;100.00;99826.47;5112750;28;20198;-58
2023/03/02 08:19:08;;;;;;;3.43;2.63;;;;;;;2.40;100.00;99828.53;5112732;28;20221;-58
2023/03/02 08:21:35;;;;;;;3.30;2.30;;;;;;;2.33;100.00;99831.25;5112675;28;20265;-58
2023/03/02 08:24:03;;;;;;;2.97;1.40;;;;;;;2.53;100.00;99828.19;5112541;28;20220;-58
2023/03/02 08:26:31;;;;;;;2.00;1.57;;;;;;;2.37;100.00;99828.59;5112625;28;20193;-59
2023/03/02 08:28:58;;;;;;;3.20;2.47;;;;;;;2.38;100.00;99825.22;5112634;28;20221;-58
2023/03/02 08:31:25;;;;;;;3.07;2.47;;;;;;;2.43;100.00;99836.00;5112524;28;20206;-58
2023/03/02 08:33:52;;;;;;;1.90;1.80;;;;;;;2.59;100.00;99838.13;5112554;28;20213;-59
2023/03/02 08:36:19;;;;;;;2.57;2.37;;;;;;;2.42;100.00;99844.47;5112834;28;20201;-59
2023/03/02 08:38:48;;;;;;;5.30;3.17;;;;;;;2.54;100.00;99855.09;5112436;27;20233;-58
2023/03/02 08:41:18;;;;;;;3.70;2.47;;;;;;;2.58;100.00;99851.63;5112569;28;20201;-59
2023/03/02 08:43:45;;;;;;;2.17;1.80;;;;;;;2.37;100.00;99843.75;5112578;28;20596;-59
2023/03/02 08:46:14;;;;;;;5.63;2.70;;;;;;;2.43;100.00;99843.59;5112397;28;20201;-59
2023/03/02 08:48:40;;;;;;;1.73;1.63;;;;;;;2.59;100.00;99843.16;5112250;27;20232;-59
2023/03/02 08:51:09;;;;;;;7.70;3.17;;;;;;;2.52;100.00;99851.78;5112532;28;20195;-58
2023/03/02 08:53:38;;;;;;;2.10;1.97;;;;;;;2.53;100.00;99843.34;5112213;28;20217;-59
2023/03/02 08:56:14;;;;;;;3.97;2.80;;;;;;;2.31;100.00;99843.91;5112428;28;20208;-58
2023/03/02 08:58:42;;;;;;;6.27;2.83;;;;;;;2.42;100.00;99857.09;5112336;28;20723;-59
2023/03/02 09:01:13;;;;;;;2.90;1.80;;;;;;;2.47;100.00;99855.28;5112041;28;20200;-59
2023/03/02 09:03:40;;;;;;;2.33;2.13;;;;;;;2.46;100.00;99858.66;5111825;27;20220;-58
2023/03/02 09:06:07;;;;;;;1.10;1.10;;;;;;;2.61;100.00;99851.53;5112596;28;20201;-58
2023/03/02 09:08:34;;;;;;;3.60;2.40;;;;;;;2.57;100.00;99849.97;5111156;28;20217;-58
2023/03/02 09:11:01;;;;;;;2.63;2.27;;;;;;;2.52;100.00;99846.72;5112046;28;20197;-59
2023/03/02 09:13:28;;;;;;;2.50;2.07;;;;;;;2.61;100.00;99852.34;5112022;28;20236;-58
2023/03/02 09:15:56;;;;;;;2.30;1.70;;;;;;;2.59;100.00;99840.63;5111668;28;20760;-58
2023/03/02 09:18:23;;;;;;;4.57;2.60;;;;;;;2.73;100.00;99830.97;5111297;28;20237;-59
2023/03/02 09:20:50;;;;;;;3.30;2.67;;;;;;;2.77;100.00;99827.53;5111761;28;20209;-59
2023/03/02 09:23:18;;;;;;;3.97;2.00;;;;;;;2.72;100.00;99821.78;5111411;28;20271;-58
2023/03/02 09:25:46;;;;;;;3.07;2.23;;;;;;;2.94;100.00;99825.34;5111504;28;20657;-58
2023/03/02 09:28:13;;;;;;;7.23;3.93;;;;;;;3.04;100.00;99825.06;5111102;28;20231;-59
2023/03/02 09:30:40;;;;;;;4.20;1.40;;;;;;;3.08;100.00;99834.19;5111593;28;20673;-59
2023/03/02 09:33:08;;;;;;;1.90;1.80;;;;;;;3.14;100.00;99826.44;5111465;28;20217;-58
2023/03/02 09:35:38;;;;;;;2.50;1.57;;;;;;;3.13;100.00;99824.78;5111385;28;20193;-58
2023/03/02 09:38:05;;;;;;;6.23;4.40;;;;;;;2.93;100.00;99822.84;5111217;28;20237;-58
2023/03/02 09:40:33;;;;;;;4.13;3.10;;;;;;;2.73;100.00;99823.41;5111505;28;20197;-58
2023/03/02 09:43:22;;;;;;;5.53;3.90;;;;;;;2.97;100.00;99819.38;5111102;28;20221;-59
2023/03/02 09:46:00;;;;;;;2.57;1.97;;;;;;;3.03;100.00;99813.31;5110918;28;20201;-59
2023/03/02 09:48:45;;;;;;;2.33;2.13;;;;;;;3.20;100.00;99818.69;5111030;28;20225;-58
2023/03/02 09:51:25;;;;;;;4.27;2.77;;;;;;;3.02;100.00;99821.75;5111138;28;20200;-58
2023/03/02 09:54:00;;;;;;;4.50;3.20;;;;;;;3.15;100.00;99823.06;5110888;28;20590;-59
2023/03/02 09:56:27;;;;;;;2.17;1.97;;;;;;;2.93;100.00;99821.13;5111148;28;20224;-59
2023/03/02 09:58:59;;;;;;;3.30;2.10;;;;;;;2.79;100.00;99808.09;5110813;28;20654;-58
2023/03/02 10:01:36;;;;;;;2.13;1.93;;;;;;;2.76;100.00;99817.44;5110898;28;20220;-59
2023/03/02 10:04:14;;;;;;;9.77;3.47;;;;;;;2.89;100.00;99811.19;5111106;28;20217;-58
2023/03/02 10:06:41;;;;;;;3.33;2.53;;;;;;;2.80;100.00;99808.94;5110893;28;20189;-59
2023/03/02 10:09:10;;;;;;;4.77;3.53;;;;;;;2.92;100.00;99801.81;5110915;28;20197;-59
2023/03/02 10:11:50;;;;;;;11.67;3.77;;;;;;;3.11;100.00;99806.31;5110756;28;20201;-58
2023/03/02 10:14:23;;;;;;;2.77;2.20;;;;;;;2.80;100.00;99802.19;5110872;28;20193;-59
2023/03/02 10:16:55;;;;;;;3.33;3.00;;;;;;;2.88;100.00;99800.28;5110025;28;20197;-58
2023/03/02 10:19:31;;;;;;;7.80;2.70;;;;;;;3.01;100.00;99799.91;5110574;28;20225;-58
2023/03/02 10:22:07;;;;;;;3.00;2.80;;;;;;;3.24;100.00;99812.66;5110435;28;20673;-58
2023/03/02 10:24:41;;;;;;;3.73;3.40;;;;;;;3.07;100.00;99812.34;5110848;28;20192;-59
2023/03/02 10:27:17;;;;;;;4.97;1.87;;;;;;;3.16;100.00;99809.53;5110529;28;20226;-59
2023/03/02 10:29:50;;;;;;;2.67;2.47;;;;;;;3.16;100.00;99814.59;5110562;28;20287;-59
2023/03/02 10:32:22;;;;;;;5.83;4.63;;;;;;;3.10;100.00;99809.72;5110515;28;20213;-58
2023/03/02 10:34:52;;;;;;;2.03;1.77;;;;;;;3.26;100.00;99805.00;5110577;28;20193;-59
2023/03/02 10:37:23;;;;;;;4.07;2.63;;;;;;;3.53;100.00;99798.28;5110591;28;20217;-58
2023/03/02 10:39:50;;;;;;;3.30;2.60;;;;;;;3.46;100.00;99796.81;5110371;28;20232;-59
2023/03/02 10:42:22;;;;;;;2.40;2.20;;;;;;;3.65;100.00;99792.84;5110725;28;20221;-59
2023/03/02 10:44:51;;;;;;;4.43;3.20;;;;;;;3.64;100.00;99796.25;5110574;28;20197;-59
2023/03/02 10:47:23;;;;;;;5.30;3.17;;;;;;;3.45;100.00;99800.22;5110357;28;20605;-58
2023/03/02 10:49:53;;;;;;;4.57;3.07;;;;;;;3.36;100.00;99797.13;5110427;28;20204;-60
2023/03/02 10:52:22;;;;;;;5.03;3.50;;;;;;;3.40;100.00;99793.63;5110017;28;20217;-59
2023/03/02 10:54:51;;;;;;;3.40;2.43;;;;;;;3.50;100.00;99794.16;5110633;28;20204;-58
2023/03/02 10:57:36;;;;;;;6.43;3.90;;;;;;;3.50;100.00;99788.28;5110045;28;20213;-59
2023/03/02 11:00:13;;;;;;;4.70;2.87;;;;;;;3.34;100.00;99782.88;5110669;28;20258;-59
2023/03/02 11:02:49;;;;;;;2.20;1.70;;;;;;;3.55;100.00;99781.34;5110081;28;20712;-59
2023/03/02 11:05:28;;;;;;;4.23;3.43;;;;;;;3.63;100.00;99780.22;5110286;28;20219;-59
2023/03/02 11:07:57;;;;;;;3.87;2.53;;;;;;;3.45;100.00;99780.84;5109971;28;20225;-59
2023/03/02 11:10:26;;;;;;;6.73;3.57;;;;;;;3.56;100.00;99788.91;5110344;28;20584;-59
2023/03/02 11:12:53;;;;;;;3.10;2.80;;;;;;;3.51;100.00;99780.63;5109755;28;20252;-59
2023/03/02 11:15:26;;;;;;;3.17;2.90;;;;;;;3.56;100.00;99783.03;5110349;28;20205;-58
2023/03/02 11:18:07;;;;;;;3.53;2.33;;;;;;;3.38;100.00;99784.44;5109983;28;20228;-59
2023/03/02 11:20:39;;;;;;;5.73;2.40;;;;;;;3.41;100.00;99769.19;5110004;28;20197;-58
2023/03/02 11:23:16;;;;;;;1.10;1.10;;;;;;;3.71;100.00;99776.63;5110348;28;20217;-59
2023/03/02 11:25:48;;;;;;;4.47;2.07;;;;;;;3.93;100.00;99781.81;5109913;28;20201;-59
2023/03/02 11:28:26;;;;;;;2.73;1.93;;;;;;;4.01;100.00;99778.13;5109898;28;20656;-59
2023/03/02 11:30:57;;;;;;;7.17;3.13;;;;;;;4.09;100.00;99785.47;5110095;28;20204;-59
2023/03/02 11:33:29;;;;;;;4.17;2.87;;;;;;;4.04;100.00;99779.72;5113365;28;20228;-59
2023/03/02 11:36:02;;;;;;;2.13;1.97;;;;;;;4.28;100.00;99778.88;5113771;28;20707;-58
2023/03/02 11:38:36;;;;;;;2.07;1.93;;;;;;;4.14;100.00;99783.59;5113437;27;20728;-58
2023/03/02 11:41:11;;;;;;;3.03;2.57;;;;;;;3.84;100.00;99778.72;5113738;28;20262;-59
2023/03/02 11:43:38;;;;;;;3.10;2.73;;;;;;;4.07;100.00;99775.41;5113393;28;20221;-58